Time;durP1;ratioP1;P1;durP2;ratioP2;P2;SDS_P1;SDS_P2;PMS_P1;PMS_P2;Temp;Humidity;BMP_temperature;BMP_pressure;BME280_temperature;BME280_humidity;BME280_pressure;Samples;Min_cycle;Max_cycle;Signal;HPM_P1;HPM_P2
2022/08/27 00:00:17;;;;;;;30.08;15.30;;;;;;;18.38;87.64;101186.84;5072286;28;20040;-54
2022/08/27 00:02:45;;;;;;;27.92;15.90;;;;;;;18.32;87.96;101186.78;5074794;28;20548;-54
2022/08/27 00:05:13;;;;;;;32.47;16.40;;;;;;;18.32;88.92;101194.84;5073307;28;20482;-54
2022/08/27 00:07:40;;;;;;;31.80;15.38;;;;;;;18.34;89.26;101184.75;5074537;28;20129;-54
2022/08/27 00:10:12;;;;;;;32.05;16.15;;;;;;;18.35;89.36;101189.09;5074594;28;20049;-54
2022/08/27 00:12:40;;;;;;;28.27;16.00;;;;;;;18.34;89.00;101190.97;5074122;28;20051;-54
2022/08/27 00:15:07;;;;;;;31.58;15.60;;;;;;;18.26;89.76;101182.22;5072776;28;20071;-54
2022/08/27 00:17:34;;;;;;;30.38;14.15;;;;;;;18.36;89.38;101185.41;5072360;28;20041;-55
2022/08/27 00:20:03;;;;;;;31.02;13.07;;;;;;;18.32;89.18;101184.97;5074370;28;20097;-55
2022/08/27 00:22:30;;;;;;;28.67;12.88;;;;;;;18.32;89.16;101184.97;5045433;28;20641;-54
2022/08/27 00:24:57;;;;;;;29.58;12.30;;;;;;;18.35;89.79;101183.72;5053339;28;20032;-53
2022/08/27 00:27:23;;;;;;;21.10;9.88;;;;;;;18.26;89.22;101176.84;5074571;28;20051;-55
2022/08/27 00:29:50;;;;;;;20.35;8.93;;;;;;;18.26;89.44;101185.72;5073774;28;20053;-54
2022/08/27 00:32:18;;;;;;;22.48;9.25;;;;;;;18.33;88.83;101183.09;5073793;28;20082;-53
2022/08/27 00:34:44;;;;;;;24.15;8.60;;;;;;;18.27;88.73;101179.34;5070714;28;20072;-54
2022/08/27 00:37:11;;;;;;;22.73;7.88;;;;;;;18.22;87.36;101182.59;5072996;28;20555;-55
2022/08/27 00:39:38;;;;;;;21.75;8.60;;;;;;;18.10;88.09;101183.31;5074062;28;20440;-53
2022/08/27 00:42:06;;;;;;;23.52;8.70;;;;;;;18.11;88.22;101182.28;5065460;28;20102;-53
2022/08/27 00:44:32;;;;;;;17.05;7.63;;;;;;;18.13;87.24;101183.75;5074398;28;20043;-54
2022/08/27 00:47:04;;;;;;;20.40;7.95;;;;;;;17.99;87.65;101185.50;5073203;28;20049;-55
2022/08/27 00:49:39;;;;;;;18.08;6.95;;;;;;;17.99;88.03;101176.59;5073989;28;20078;-55
2022/08/27 00:52:15;;;;;;;23.80;7.10;;;;;;;18.10;87.66;101180.63;5072857;28;20106;-55
2022/08/27 00:54:42;;;;;;;18.50;6.60;;;;;;;18.16;87.12;101183.38;5074127;28;20040;-53
2022/08/27 00:57:09;;;;;;;28.00;8.00;;;;;;;18.15;86.91;101183.56;5068178;28;20049;-53
2022/08/27 00:59:37;;;;;;;23.80;8.27;;;;;;;18.20;86.87;101173.06;5060158;28;20049;-54
2022/08/27 01:02:19;;;;;;;21.17;8.18;;;;;;;18.13;86.30;101174.88;5073315;28;20076;-53
2022/08/27 01:04:48;;;;;;;;;;;;;;;18.14;86.31;101179.22;5074545;28;20486;-54
2022/08/27 01:07:16;;;;;;;17.85;7.93;;;;;;;18.13;86.27;101180.25;5073783;28;20415;-53
2022/08/27 01:09:45;;;;;;;23.27;7.70;;;;;;;18.06;86.25;101176.66;5072703;28;20086;-52
2022/08/27 01:12:13;;;;;;;20.52;7.95;;;;;;;18.00;86.34;101172.91;5073667;28;20048;-53
2022/08/27 01:14:43;;;;;;;27.15;8.10;;;;;;;17.98;86.34;101174.94;5072723;28;20040;-53
2022/08/27 01:17:12;;;;;;;26.48;8.00;;;;;;;17.89;86.56;101171.56;5073589;28;20079;-54
2022/08/27 01:19:50;;;;;;;20.73;7.45;;;;;;;17.85;86.79;101167.59;5072592;28;20552;-52
2022/08/27 01:22:47;;;;;;;19.50;7.43;;;;;;;17.86;87.12;101174.63;5073512;28;20135;-52
2022/08/27 01:25:17;;;;;;;20.73;8.18;;;;;;;17.84;86.88;101177.50;5061365;28;20043;-53
2022/08/27 01:27:45;;;;;;;19.80;6.68;;;;;;;17.78;87.35;101169.38;5073105;28;20044;-53
2022/08/27 01:30:16;;;;;;;20.73;6.20;;;;;;;17.85;86.67;101170.28;5065905;28;20044;-53
2022/08/27 01:32:45;;;;;;;17.85;6.40;;;;;;;17.87;86.81;101165.56;5053533;28;20135;-52
2022/08/27 01:35:13;;;;;;;19.77;6.45;;;;;;;17.87;86.42;101157.50;5061487;28;20511;-52
2022/08/27 01:37:43;;;;;;;24.33;6.10;;;;;;;17.86;86.03;101155.84;5073480;28;20056;-54
2022/08/27 01:40:10;;;;;;;17.55;5.30;;;;;;;17.96;85.45;101160.91;5074419;28;20047;-53
2022/08/27 01:42:41;;;;;;;20.02;5.10;;;;;;;17.94;85.01;101153.03;5105723;28;20048;-53
2022/08/27 01:45:12;;;;;;;20.73;5.55;;;;;;;17.91;85.09;101153.41;5080215;28;20051;-52
2022/08/27 01:47:40;;;;;;;17.48;4.72;;;;;;;17.99;84.64;101161.34;5072893;28;20423;-53
2022/08/27 01:50:13;;;;;;;18.75;3.95;;;;;;;17.99;83.77;101144.38;5067309;28;20043;-53
2022/08/27 01:52:40;;;;;;;16.17;4.35;;;;;;;17.99;83.63;101155.97;5073013;28;20098;-53
2022/08/27 01:55:10;;;;;;;18.88;3.95;;;;;;;18.09;82.77;101150.28;5072026;28;20076;-52
2022/08/27 01:57:38;;;;;;;15.18;4.10;;;;;;;18.11;82.96;101155.44;5070892;28;20064;-53
2022/08/27 02:00:11;;;;;;;15.80;3.70;;;;;;;18.08;82.14;101153.13;5072162;28;20098;-53
2022/08/27 02:02:39;;;;;;;16.65;3.53;;;;;;;18.00;82.14;101156.81;5056389;28;20137;-50
2022/08/27 02:05:06;;;;;;;16.20;3.35;;;;;;;17.94;82.31;101155.72;5052507;28;20045;-51
2022/08/27 02:07:33;;;;;;;24.30;3.78;;;;;;;17.94;82.00;101155.72;5070240;28;20033;-54
2022/08/27 02:09:59;;;;;;;17.55;3.50;;;;;;;18.00;81.57;101149.56;5072841;28;20044;-53
2022/08/27 02:12:27;;;;;;;15.43;3.22;;;;;;;18.01;81.42;101156.59;5072282;28;20135;-54
2022/08/27 02:14:54;;;;;;;14.05;3.45;;;;;;;18.13;80.48;101150.72;5071639;28;20036;-52
2022/08/27 02:17:20;;;;;;;21.38;3.75;;;;;;;18.17;80.19;101151.97;5072757;28;20486;-52
2022/08/27 02:19:47;;;;;;;18.60;3.72;;;;;;;18.21;80.15;101153.28;5066659;28;20049;-51
2022/08/27 02:22:15;;;;;;;14.23;3.50;;;;;;;18.10;80.08;101157.31;5052818;28;20052;-53
2022/08/27 02:24:41;;;;;;;18.40;4.00;;;;;;;18.18;79.71;101149.09;5016968;28;20041;-54
2022/08/27 02:27:08;;;;;;;16.52;3.88;;;;;;;18.18;79.31;101149.09;5052820;28;20049;-52
2022/08/27 02:29:35;;;;;;;11.98;3.38;;;;;;;18.22;78.92;101138.81;5066875;28;20390;-52
2022/08/27 02:32:02;;;;;;;15.15;4.00;;;;;;;18.19;78.97;101149.91;5052705;28;20048;-52
2022/08/27 02:34:29;;;;;;;15.55;4.80;;;;;;;18.13;78.21;101150.72;5055577;28;20052;-52
2022/08/27 02:36:56;;;;;;;20.55;5.25;;;;;;;18.13;77.40;101145.34;5071493;28;20044;-54
2022/08/27 02:39:23;;;;;;;16.17;5.18;;;;;;;18.09;77.25;101150.28;5070375;28;20048;-53
2022/08/27 02:41:49;;;;;;;15.80;4.47;;;;;;;18.11;77.13;101148.22;5071727;28;20098;-51
2022/08/27 02:44:16;;;;;;;16.50;4.40;;;;;;;18.11;77.12;101147.41;5072602;28;20044;-53
2022/08/27 02:46:43;;;;;;;19.08;4.60;;;;;;;18.12;76.48;101152.56;5072494;28;20055;-52
2022/08/27 02:49:10;;;;;;;13.15;4.03;;;;;;;18.02;77.15;101146.69;5072290;28;20056;-52
2022/08/27 02:51:36;;;;;;;18.88;5.03;;;;;;;18.07;76.94;101146.94;5071559;28;20874;-53
2022/08/27 02:54:03;;;;;;;15.40;5.28;;;;;;;18.02;77.12;101144.84;5071000;28;20047;-54
2022/08/27 02:56:30;;;;;;;20.25;6.35;;;;;;;18.05;76.87;101140.94;5071505;28;20123;-52
2022/08/27 02:58:58;;;;;;;17.55;5.97;;;;;;;18.10;76.91;101141.19;5072616;28;20662;-53
2022/08/27 03:01:25;;;;;;;20.98;6.95;;;;;;;18.16;76.50;101142.28;5065278;28;20048;-54
2022/08/27 03:03:51;;;;;;;27.38;10.80;;;;;;;18.03;76.94;101140.31;5074800;28;20056;-53
2022/08/27 03:06:18;;;;;;;31.08;10.70;;;;;;;18.12;76.97;101140.97;5075033;28;20098;-53
2022/08/27 03:08:45;;;;;;;26.55;10.43;;;;;;;18.14;77.25;101150.53;5075474;28;20049;-53
2022/08/27 03:11:12;;;;;;;33.47;11.32;;;;;;;18.14;77.08;101141.66;5060560;28;20462;-54
2022/08/27 03:13:40;;;;;;;28.58;11.52;;;;;;;18.02;77.31;101136.78;5055984;28;20053;-53
2022/08/27 03:16:07;;;;;;;28.05;10.68;;;;;;;18.10;77.42;101137.66;5072369;28;20045;-53
2022/08/27 03:18:34;;;;;;;24.27;9.65;;;;;;;18.04;77.34;101141.97;5075471;28;20041;-54
2022/08/27 03:21:01;;;;;;;26.13;9.63;;;;;;;18.02;77.58;101141.31;5075751;28;20048;-53
2022/08/27 03:23:32;;;;;;;28.40;9.60;;;;;;;17.87;78.33;101133.34;5037211;28;20064;-54
2022/08/27 03:26:03;;;;;;;25.80;9.97;;;;;;;17.92;79.39;101138.97;5075237;28;20040;-55
2022/08/27 03:28:33;;;;;;;31.17;9.15;;;;;;;17.85;79.31;101140.78;5073014;28;20055;-53
2022/08/27 03:31:03;;;;;;;27.25;8.70;;;;;;;17.92;79.26;101146.19;5074868;28;20449;-54
2022/08/27 03:33:32;;;;;;;26.33;8.45;;;;;;;17.97;79.03;101141.06;5073053;28;20040;-52
2022/08/27 03:36:00;;;;;;;22.58;8.63;;;;;;;17.95;78.82;101135.88;5072466;28;20044;-53
2022/08/27 03:38:26;;;;;;;26.98;8.35;;;;;;;17.92;79.01;101143.50;5075416;28;20132;-52
2022/08/27 03:40:54;;;;;;;21.23;7.95;;;;;;;17.82;79.08;101141.94;5075715;28;20757;-53
2022/08/27 03:43:22;;;;;;;21.17;7.93;;;;;;;17.75;79.46;101149.09;5095704;28;20044;-53
2022/08/27 03:45:50;;;;;;;22.15;7.78;;;;;;;17.72;79.84;101136.09;5087561;28;20041;-54
2022/08/27 03:48:17;;;;;;;24.65;7.70;;;;;;;17.75;80.10;101141.03;5075133;28;20044;-54
2022/08/27 03:50:46;;;;;;;20.20;6.97;;;;;;;17.73;80.28;101135.03;5072893;28;20056;-54
2022/08/27 03:53:15;;;;;;;20.25;7.53;;;;;;;17.79;81.00;101128.94;5071282;28;20052;-54
2022/08/27 03:55:42;;;;;;;16.70;7.85;;;;;;;17.81;80.82;101136.78;5071489;28;20482;-54
2022/08/27 03:58:10;;;;;;;25.00;8.38;;;;;;;17.81;80.35;101126.88;5073635;28;20048;-54
2022/08/27 04:00:39;;;;;;;28.50;8.90;;;;;;;17.94;80.61;101131.56;5074155;28;20040;-54
2022/08/27 04:03:06;;;;;;;25.40;9.57;;;;;;;17.85;80.85;101132.72;5069342;28;20044;-54
2022/08/27 04:05:33;;;;;;;26.38;9.88;;;;;;;17.78;80.92;101126.44;5075797;28;20055;-55
2022/08/27 04:08:00;;;;;;;21.67;8.30;;;;;;;17.72;81.08;101121.81;5072719;28;20067;-54
2022/08/27 04:10:27;;;;;;;22.08;8.07;;;;;;;17.76;80.44;101126.63;5074676;28;20142;-54
2022/08/27 04:12:54;;;;;;;18.48;8.25;;;;;;;17.66;81.17;101128.78;5073421;28;20048;-54
2022/08/27 04:15:22;;;;;;;18.92;9.55;;;;;;;17.66;80.75;101126.09;5071894;28;20040;-53
2022/08/27 04:17:48;;;;;;;20.95;9.32;;;;;;;17.73;80.71;101134.22;5073734;28;20123;-53
2022/08/27 04:20:15;;;;;;;18.00;9.57;;;;;;;17.68;79.96;101136.63;5073783;28;20154;-55
2022/08/27 04:22:59;;;;;;;23.77;9.02;;;;;;;17.65;80.48;101141.38;5036781;28;20846;-54
2022/08/27 04:25:25;;;;;;;24.63;8.70;;;;;;;17.67;80.81;101143.88;5074478;28;20060;-54
2022/08/27 04:27:52;;;;;;;23.45;9.25;;;;;;;17.74;80.51;101149.31;5073460;28;20041;-54
2022/08/27 04:30:19;;;;;;;24.85;8.70;;;;;;;17.68;81.04;101142.00;5073223;28;20155;-54
2022/08/27 04:32:46;;;;;;;23.23;8.15;;;;;;;17.59;81.11;101150.19;5072638;28;20052;-54
2022/08/27 04:35:12;;;;;;;21.38;8.30;;;;;;;17.51;81.56;101147.63;5073675;28;20095;-53
2022/08/27 04:37:39;;;;;;;28.35;8.73;;;;;;;17.61;81.68;101153.50;5073884;28;20102;-54
2022/08/27 04:40:07;;;;;;;25.02;8.73;;;;;;;17.65;81.96;101148.59;5067743;28;20045;-53
2022/08/27 04:42:33;;;;;;;20.70;9.00;;;;;;;17.66;82.02;101158.28;5054014;28;20468;-54
2022/08/27 04:45:01;;;;;;;21.33;8.80;;;;;;;17.62;82.79;101163.19;5076033;28;20102;-54
2022/08/27 04:47:28;;;;;;;28.05;9.20;;;;;;;17.62;82.21;101163.19;5072510;28;20045;-54
2022/08/27 04:49:55;;;;;;;25.33;9.60;;;;;;;17.61;82.88;101166.09;5074049;28;20094;-54
2022/08/27 04:52:22;;;;;;;26.55;9.07;;;;;;;17.56;82.86;101169.34;5072649;28;20059;-53
2022/08/27 04:54:48;;;;;;;30.20;9.45;;;;;;;17.64;82.31;101173.75;5072970;28;20037;-54
2022/08/27 04:57:15;;;;;;;30.83;10.02;;;;;;;17.49;82.82;101171.13;5069536;28;20059;-53
2022/08/27 04:59:42;;;;;;;28.45;9.82;;;;;;;17.48;83.29;101169.44;5073738;28;20049;-54
2022/08/27 05:02:09;;;;;;;24.92;8.55;;;;;;;17.51;82.83;101168.25;5073528;28;20044;-54
2022/08/27 05:04:38;;;;;;;28.25;9.00;;;;;;;17.49;83.47;101162.25;5072646;28;20044;-54
2022/08/27 05:07:07;;;;;;;27.85;8.73;;;;;;;17.46;83.63;101168.81;5071624;28;20486;-53
2022/08/27 05:09:34;;;;;;;24.45;8.93;;;;;;;17.56;83.40;101169.34;5073414;28;20102;-55
2022/08/27 05:12:01;;;;;;;25.27;8.70;;;;;;;17.53;83.95;101176.94;5072875;28;20055;-54
2022/08/27 05:14:29;;;;;;;24.38;8.77;;;;;;;17.47;83.97;101178.53;5073755;28;20082;-54
2022/08/27 05:16:57;;;;;;;23.15;8.63;;;;;;;17.47;84.05;101181.22;5073356;28;20048;-53
2022/08/27 05:19:25;;;;;;;25.15;8.13;;;;;;;17.57;83.96;101187.09;5072435;28;20047;-54
2022/08/27 05:21:52;;;;;;;24.23;8.45;;;;;;;17.50;84.74;101179.97;5072306;28;20044;-54
2022/08/27 05:24:20;;;;;;;28.02;7.68;;;;;;;17.46;83.52;101182.22;5024937;28;20068;-53
2022/08/27 05:26:47;;;;;;;27.90;7.40;;;;;;;17.52;83.33;101188.66;5053631;28;20048;-53
2022/08/27 05:29:14;;;;;;;21.88;7.70;;;;;;;17.45;84.07;101183.25;5053368;28;20041;-54
2022/08/27 05:31:41;;;;;;;22.63;7.75;;;;;;;17.36;84.25;101185.19;5053590;28;20048;-54
2022/08/27 05:34:08;;;;;;;18.65;7.82;;;;;;;17.34;85.41;101186.41;5056106;28;20055;-54
2022/08/27 05:36:35;;;;;;;25.65;7.50;;;;;;;17.25;85.26;101185.69;5073315;28;20486;-53
2022/08/27 05:39:04;;;;;;;23.70;7.40;;;;;;;17.23;86.31;101191.25;5072210;28;20068;-54
2022/08/27 05:41:32;;;;;;;24.98;7.20;;;;;;;17.12;87.47;101189.03;5072422;28;20037;-53
2022/08/27 05:44:02;;;;;;;21.95;7.70;;;;;;;17.10;87.90;101193.75;5072911;28;20060;-54
2022/08/27 05:46:35;;;;;;;23.08;7.85;;;;;;;17.11;87.64;101192.72;5072757;28;20045;-54
2022/08/27 05:49:01;;;;;;;23.52;7.55;;;;;;;17.07;87.81;101197.63;5073159;28;20098;-54
2022/08/27 05:51:31;;;;;;;25.42;8.50;;;;;;;17.13;88.39;101193.38;5071909;28;20114;-55
2022/08/27 05:54:01;;;;;;;22.88;8.25;;;;;;;17.22;88.69;101186.88;5071813;28;20110;-55
2022/08/27 05:56:33;;;;;;;21.55;8.20;;;;;;;17.07;88.91;101188.75;5072916;28;20049;-55
2022/08/27 06:01:49;;;;;;;28.45;7.03;;;;;;;17.03;90.01;101195.50;5052918;28;20039;-53
2022/08/27 06:04:17;;;;;;;25.60;7.53;;;;;;;16.91;89.27;101192.44;5067137;28;20053;-53
2022/08/27 06:06:45;;;;;;;23.30;7.20;;;;;;;17.08;90.04;101190.41;5069698;28;20506;-54
2022/08/27 06:09:15;;;;;;;24.95;7.45;;;;;;;17.10;89.07;101191.06;5071944;28;20667;-54
2022/08/27 06:11:42;;;;;;;18.83;6.82;;;;;;;17.12;88.89;101188.19;5053741;28;20041;-55
2022/08/27 06:14:09;;;;;;;21.45;7.57;;;;;;;17.13;89.23;101187.19;5053253;28;20076;-54
2022/08/27 06:16:37;;;;;;;29.20;7.82;;;;;;;17.24;88.85;101190.19;5071287;28;20083;-54
2022/08/27 06:19:06;;;;;;;23.30;7.15;;;;;;;17.27;87.02;101194.38;5072593;28;20147;-54
2022/08/27 06:21:33;;;;;;;22.52;7.22;;;;;;;17.15;86.41;101191.31;5072086;28;20058;-54
2022/08/27 06:24:00;;;;;;;25.45;6.78;;;;;;;17.04;87.16;101199.84;5035076;28;20061;-54
2022/08/27 06:26:28;;;;;;;22.65;6.45;;;;;;;17.15;87.31;101191.31;5071585;28;20371;-54
2022/08/27 06:28:55;;;;;;;26.10;6.90;;;;;;;17.13;86.44;101193.38;5072731;28;20055;-53
2022/08/27 06:31:25;;;;;;;23.58;6.10;;;;;;;17.14;87.49;101194.22;5071139;28;20498;-53
2022/08/27 06:33:57;;;;;;;23.60;5.97;;;;;;;17.13;85.08;101193.38;5073120;28;20049;-52
2022/08/27 06:36:25;;;;;;;16.33;5.68;;;;;;;17.15;86.10;101201.22;5076428;28;20051;-54
2022/08/27 06:38:53;;;;;;;22.25;6.00;;;;;;;17.16;86.79;101197.53;5076401;28;20068;-55
2022/08/27 06:41:23;;;;;;;27.23;5.95;;;;;;;17.07;85.32;101202.97;5076395;28;20045;-55
2022/08/27 06:43:51;;;;;;;22.57;5.37;;;;;;;17.17;84.84;101207.22;5075638;28;20393;-55
2022/08/27 06:46:20;;;;;;;17.70;5.35;;;;;;;17.30;85.08;101209.25;5074582;28;20072;-55
2022/08/27 06:48:51;;;;;;;15.90;5.72;;;;;;;17.26;83.76;101201.59;5091229;28;20151;-53
2022/08/27 06:51:23;;;;;;;17.20;5.43;;;;;;;17.38;83.06;101206.47;5076163;28;20495;-54
2022/08/27 06:53:51;;;;;;;18.60;5.50;;;;;;;17.27;82.94;101205.09;5075201;28;20448;-54
2022/08/27 06:56:19;;;;;;;16.95;4.75;;;;;;;17.19;82.78;101206.03;5076227;28;20076;-54
2022/08/27 06:58:45;;;;;;;21.17;4.63;;;;;;;17.23;82.43;101201.97;5075849;28;20506;-54
2022/08/27 07:01:15;;;;;;;20.75;4.90;;;;;;;17.31;82.91;101202.88;5075951;28;20398;-53
2022/08/27 07:03:43;;;;;;;20.98;4.90;;;;;;;17.38;81.58;101199.25;5074927;28;20040;-55
2022/08/27 07:06:12;;;;;;;21.80;5.25;;;;;;;17.38;81.98;101201.09;5075785;28;20052;-54
2022/08/27 07:08:40;;;;;;;17.30;5.00;;;;;;;17.47;81.00;101194.63;5063948;28;20044;-55
2022/08/27 07:11:08;;;;;;;23.05;5.40;;;;;;;17.60;80.77;101194.75;5075466;28;20112;-54
2022/08/27 07:13:35;;;;;;;23.98;5.07;;;;;;;17.61;80.68;101199.13;5073545;28;20493;-54
2022/08/27 07:16:05;;;;;;;21.13;5.05;;;;;;;17.64;79.44;101203.25;5088094;28;20062;-54
2022/08/27 07:18:33;;;;;;;19.20;5.03;;;;;;;17.65;79.01;101194.19;5074831;28;20051;-54
2022/08/27 07:21:02;;;;;;;16.08;5.35;;;;;;;17.65;nan;101192.34;5058413;28;20047;-55
2022/08/27 07:23:31;;;;;;;16.30;4.90;;;;;;;17.67;78.64;101196.69;5042230;28;20047;-54
2022/08/27 07:25:58;;;;;;;20.08;5.68;;;;;;;17.70;78.40;101199.84;5070057;28;20048;-54
2022/08/27 07:28:26;;;;;;;18.25;5.70;;;;;;;17.64;78.37;101204.09;5074889;28;20048;-54
2022/08/27 07:30:53;;;;;;;26.30;5.78;;;;;;;17.71;77.29;101203.34;5069477;28;20490;-54
2022/08/27 07:33:20;;;;;;;15.95;6.25;;;;;;;17.69;77.88;101205.38;5074398;28;20060;-54
2022/08/27 07:35:48;;;;;;;22.92;6.78;;;;;;;17.77;78.09;101205.25;5074395;28;20045;-54
2022/08/27 07:38:14;;;;;;;16.25;5.57;;;;;;;17.75;76.81;101204.63;5075463;28;20044;-54
2022/08/27 07:40:41;;;;;;;17.83;5.88;;;;;;;17.71;76.94;101206.84;5065625;28;20040;-55
2022/08/27 07:45:56;;;;;;;22.27;6.53;;;;;;;17.76;77.13;101206.28;5073436;28;20047;-55
2022/08/27 07:48:24;;;;;;;22.38;6.63;;;;;;;17.80;76.23;101208.38;5068971;28;20111;-57
2022/08/27 07:50:51;;;;;;;21.88;8.35;;;;;;;17.89;76.45;101209.13;5061987;28;20053;-53
2022/08/27 07:53:19;;;;;;;24.52;6.43;;;;;;;17.98;77.06;101215.22;5064074;28;20074;-54
2022/08/27 07:55:46;;;;;;;17.65;6.93;;;;;;;17.80;76.29;101212.94;5074381;28;20040;-54
2022/08/27 07:58:14;;;;;;;15.48;6.07;;;;;;;17.95;76.83;101221.78;5069633;28;20123;-54
2022/08/27 08:00:44;;;;;;;21.73;6.43;;;;;;;18.18;76.38;101218.09;5055257;28;20141;-53
2022/08/27 08:03:12;;;;;;;15.55;5.70;;;;;;;18.14;75.64;101214.13;5070254;28;20045;-53
2022/08/27 08:05:43;;;;;;;21.48;5.97;;;;;;;18.04;75.02;101222.50;5074170;28;20041;-53
2022/08/27 08:08:10;;;;;;;21.08;5.50;;;;;;;18.03;74.91;101220.84;5073967;28;20037;-53
2022/08/27 08:10:38;;;;;;;17.20;5.18;;;;;;;18.06;74.97;101222.31;5054640;28;20044;-50
2022/08/27 08:13:05;;;;;;;15.65;5.40;;;;;;;18.07;74.80;101215.94;5055179;28;20145;-53
2022/08/27 08:15:33;;;;;;;21.63;5.40;;;;;;;18.10;74.85;101216.38;5072285;28;20048;-54
2022/08/27 08:18:00;;;;;;;19.77;5.30;;;;;;;18.18;75.04;101215.41;5071279;28;20040;-53
2022/08/27 08:20:27;;;;;;;21.63;5.00;;;;;;;18.16;74.40;101215.59;5073834;28;20049;-51
2022/08/27 08:23:08;;;;;;;14.43;4.40;;;;;;;18.26;74.06;101222.47;5035512;28;20055;-53
2022/08/27 08:25:34;;;;;;;18.50;4.72;;;;;;;18.28;74.01;101223.13;5066819;28;20341;-54
2022/08/27 08:28:01;;;;;;;25.85;7.72;;;;;;;18.32;73.90;101224.38;5070496;28;20390;-54
2022/08/27 08:30:28;;;;;;;20.23;5.60;;;;;;;18.41;73.11;101229.44;5065581;28;20041;-54
2022/08/27 08:32:55;;;;;;;19.55;5.85;;;;;;;18.44;73.29;101232.75;5074356;28;20048;-54
2022/08/27 08:35:23;;;;;;;16.63;5.10;;;;;;;18.50;72.48;101229.28;5069272;28;20103;-54
2022/08/27 08:37:50;;;;;;;22.13;5.63;;;;;;;18.57;72.19;101232.88;5071261;28;20048;-54
2022/08/27 08:40:37;;;;;;;18.45;4.57;;;;;;;18.58;71.86;101238.03;5068085;28;20155;-54
2022/08/27 08:43:08;;;;;;;15.55;4.78;;;;;;;18.68;71.48;101237.72;5075106;28;20555;-54
2022/08/27 08:45:39;;;;;;;16.65;4.90;;;;;;;18.78;72.06;101232.81;5073410;28;20050;-53
2022/08/27 08:48:13;;;;;;;15.75;5.80;;;;;;;18.97;71.29;101236.72;5071448;28;20047;-55
2022/08/27 08:50:51;;;;;;;21.88;6.20;;;;;;;18.94;70.59;101236.28;5074045;28;20049;-55
2022/08/27 08:53:41;;;;;;;14.32;4.97;;;;;;;18.91;69.97;101234.78;5079100;28;20048;-54
2022/08/27 08:56:14;;;;;;;20.85;4.90;;;;;;;18.87;70.00;101236.22;5063180;28;20048;-54
2022/08/27 08:58:51;;;;;;;18.90;5.57;;;;;;;18.81;70.18;101237.03;5090441;28;20048;-53
2022/08/27 09:01:20;;;;;;;16.48;5.15;;;;;;;18.89;70.83;101244.91;5061242;28;20056;-54
2022/08/27 09:03:53;;;;;;;17.10;5.40;;;;;;;18.90;71.25;101243.91;5061714;28;20393;-54
2022/08/27 09:06:31;;;;;;;18.73;5.20;;;;;;;18.94;69.80;101244.34;5071937;28;20501;-55
2022/08/27 09:09:07;;;;;;;13.63;5.00;;;;;;;18.93;69.64;101248.03;5076799;28;20047;-53
2022/08/27 09:11:39;;;;;;;16.50;5.65;;;;;;;18.86;70.16;101250.66;5093923;28;20513;-54
2022/08/27 09:14:25;;;;;;;18.50;6.05;;;;;;;19.14;70.30;101255.22;5073704;28;20040;-53
2022/08/27 09:16:52;;;;;;;14.98;5.03;;;;;;;19.08;69.36;101259.53;5070256;28;20040;-54
2022/08/27 09:19:20;;;;;;;14.63;5.00;;;;;;;19.11;69.30;101251.03;5073022;28;20094;-53
2022/08/27 09:21:55;;;;;;;12.55;5.07;;;;;;;19.12;69.03;101249.19;5056184;28;20056;-53
2022/08/27 09:24:42;;;;;;;18.25;5.53;;;;;;;19.12;68.61;101247.34;5027493;28;20059;-53
2022/08/27 09:27:13;;;;;;;15.30;5.15;;;;;;;19.26;68.46;101252.78;5056911;28;20503;-53
2022/08/27 09:29:50;;;;;;;15.85;5.22;;;;;;;18.90;68.67;101251.97;5067067;28;20050;-53
2022/08/27 09:32:23;;;;;;;16.95;5.22;;;;;;;18.92;68.79;101255.28;5065925;28;20048;-54
2022/08/27 09:35:08;;;;;;;16.90;5.07;;;;;;;18.84;69.22;101255.41;5065253;28;20055;-53
2022/08/27 09:37:44;;;;;;;16.00;4.97;;;;;;;18.94;68.74;101250.53;5071706;28;20055;-55
2022/08/27 09:40:21;;;;;;;20.25;5.45;;;;;;;19.10;68.57;101252.09;5068712;28;20043;-54
2022/08/27 09:42:52;;;;;;;15.25;4.68;;;;;;;18.96;68.92;101255.72;5079627;28;20488;-55
2022/08/27 09:45:22;;;;;;;21.05;4.85;;;;;;;19.02;68.84;101246.84;5076128;28;20049;-54
2022/08/27 09:48:12;;;;;;;21.80;4.65;;;;;;;19.01;69.10;101258.66;5083282;28;20041;-55
2022/08/27 09:50:45;;;;;;;15.80;4.97;;;;;;;19.05;68.84;101257.22;5070446;28;20127;-54
2022/08/27 09:55:58;;;;;;;20.30;4.97;;;;;;;19.13;68.58;101259.75;5109578;27;20396;-54
2022/08/27 09:58:31;;;;;;;19.67;4.53;;;;;;;19.28;67.60;101265.00;5099855;28;20105;-53
2022/08/27 10:01:02;;;;;;;20.80;4.97;;;;;;;19.22;67.71;101256.91;5105672;28;20055;-54
2022/08/27 10:03:29;;;;;;;16.02;4.35;;;;;;;19.18;68.15;101268.03;5091391;28;20052;-53
2022/08/27 10:05:59;;;;;;;18.25;5.07;;;;;;;19.17;67.96;101262.84;5109206;28;20043;-53
2022/08/27 10:08:43;;;;;;;19.83;5.22;;;;;;;19.20;67.80;101259.78;5096501;28;20063;-54
2022/08/27 10:11:22;;;;;;;16.55;4.75;;;;;;;19.22;68.13;101259.59;5099925;28;20048;-56
2022/08/27 10:14:01;;;;;;;19.48;4.63;;;;;;;19.19;67.57;101260.78;5080094;28;20344;-51
2022/08/27 10:16:54;;;;;;;15.40;4.55;;;;;;;19.20;67.41;101256.28;5092840;28;21801;-54
2022/08/27 10:19:44;;;;;;;23.33;9.32;;;;;;;19.25;67.51;101260.03;5094499;28;20036;-53
2022/08/27 10:22:37;;;;;;;20.92;5.65;;;;;;;19.34;67.04;101264.22;5095490;28;20036;-54
2022/08/27 10:25:21;;;;;;;16.65;4.38;;;;;;;19.62;65.25;101262.47;5110454;28;20067;-54
2022/08/27 10:28:05;;;;;;;18.88;4.50;;;;;;;19.56;65.70;101258.72;5110109;28;20096;-54
2022/08/27 10:31:11;;;;;;;17.73;4.57;;;;;;;19.60;66.42;101264.53;5107143;28;20054;-54
2022/08/27 10:33:52;;;;;;;16.63;6.63;;;;;;;19.60;65.60;101261.84;5112997;27;20048;-53
2022/08/27 10:36:59;;;;;;;19.93;4.63;;;;;;;19.69;64.84;101263.31;5096608;28;20505;-54
2022/08/27 10:39:56;;;;;;;17.73;5.40;;;;;;;19.63;64.57;101261.41;5129666;28;20801;-55
2022/08/27 10:42:31;;;;;;;17.80;4.47;;;;;;;19.77;64.55;101263.16;5118263;28;20051;-54
2022/08/27 10:45:10;;;;;;;22.25;5.85;;;;;;;19.74;64.74;101263.59;5108939;28;20050;-53
2022/08/27 10:50:47;;;;;;;20.98;4.03;;;;;;;19.84;65.07;101261.31;5110777;27;20384;-53
2022/08/27 10:53:46;;;;;;;17.58;3.88;;;;;;;19.89;64.02;101260.72;5110852;28;20446;-54
2022/08/27 10:56:20;;;;;;;18.33;4.22;;;;;;;20.00;62.58;101257.44;5092098;28;20072;-54
2022/08/27 10:58:59;;;;;;;20.20;3.92;;;;;;;20.00;62.68;101256.59;5110461;28;20044;-55
2022/08/27 11:01:50;;;;;;;14.85;4.18;;;;;;;19.87;63.77;101263.59;5110151;28;20397;-54
2022/08/27 11:04:23;;;;;;;18.02;4.72;;;;;;;19.84;63.50;101255.94;5093049;28;20071;-54
2022/08/27 11:07:01;;;;;;;19.55;3.80;;;;;;;19.81;63.67;101253.66;5109005;28;20052;-54
2022/08/27 11:09:40;;;;;;;13.90;4.07;;;;;;;19.73;63.67;101256.53;5108686;28;20400;-54
2022/08/27 11:12:10;;;;;;;30.73;7.65;;;;;;;19.94;63.01;101252.88;5108846;28;20048;-55
2022/08/27 11:14:55;;;;;;;21.23;5.32;;;;;;;20.08;62.88;101257.25;5109003;28;20404;-54
2022/08/27 11:17:37;;;;;;;15.43;4.57;;;;;;;20.23;62.26;101259.75;5110716;28;20581;-54
2022/08/27 11:23:09;;;;;;;19.60;4.57;;;;;;;20.27;62.13;101249.41;5075867;27;20382;-53
2022/08/27 11:25:55;;;;;;;21.75;4.50;;;;;;;20.35;61.69;101248.34;5110810;28;20044;-55
2022/08/27 11:28:30;;;;;;;16.50;4.85;;;;;;;20.38;61.09;101256.84;5110915;28;20485;-54
2022/08/27 11:31:07;;;;;;;16.65;3.55;;;;;;;20.43;60.87;101249.00;5110683;28;20057;-54
2022/08/27 11:33:43;;;;;;;15.38;3.38;;;;;;;20.42;61.05;101247.31;5110356;28;20046;-56
2022/08/27 11:36:27;;;;;;;20.63;4.15;;;;;;;20.62;60.93;101241.97;5110837;28;20048;-54
2022/08/27 11:39:21;;;;;;;18.58;4.20;;;;;;;20.57;60.45;101252.50;5103678;28;20497;-53
2022/08/27 11:42:27;;;;;;;20.02;4.50;;;;;;;20.63;60.02;101259.81;5110154;28;20137;-54
2022/08/27 11:45:03;;;;;;;13.55;3.90;;;;;;;20.65;59.99;101244.25;5097927;28;20048;-50
2022/08/27 11:47:30;;;;;;;16.48;4.43;;;;;;;20.70;59.04;101243.59;5089712;28;20132;-54